sensor_id;sensor_type;location;lat;lon;timestamp;P1;durP1;ratioP1;P2;durP2;ratioP2
64936;SDS011;51452;47.698;19.050;2022-08-18T00:02:22;11.88;;;5.55;;
64936;SDS011;51452;47.698;19.050;2022-08-18T00:04:50;9.20;;;5.68;;
64936;SDS011;51452;47.698;19.050;2022-08-18T00:07:20;9.63;;;5.78;;
64936;SDS011;51452;47.698;19.050;2022-08-18T00:09:54;9.88;;;6.28;;
64936;SDS011;51452;47.698;19.050;2022-08-18T00:15:08;10.43;;;6.00;;
64936;SDS011;51452;47.698;19.050;2022-08-18T00:17:36;11.32;;;5.97;;
64936;SDS011;51452;47.698;19.050;2022-08-18T00:20:06;9.13;;;5.78;;
64936;SDS011;51452;47.698;19.050;2022-08-18T00:22:34;9.00;;;5.90;;
64936;SDS011;51452;47.698;19.050;2022-08-18T00:24:59;9.93;;;6.05;;
64936;SDS011;51452;47.698;19.050;2022-08-18T00:27:26;9.73;;;6.10;;
64936;SDS011;51452;47.698;19.050;2022-08-18T00:29:55;13.50;;;6.32;;
64936;SDS011;51452;47.698;19.050;2022-08-18T00:32:26;10.48;;;5.53;;
64936;SDS011;51452;47.698;19.050;2022-08-18T00:34:54;9.48;;;6.47;;
64936;SDS011;51452;47.698;19.050;2022-08-18T00:37:19;10.18;;;6.13;;
64936;SDS011;51452;47.698;19.050;2022-08-18T00:39:46;15.90;;;6.07;;
64936;SDS011;51452;47.698;19.050;2022-08-18T00:42:22;9.25;;;5.72;;
64936;SDS011;51452;47.698;19.050;2022-08-18T00:44:50;9.98;;;6.10;;
64936;SDS011;51452;47.698;19.050;2022-08-18T00:47:16;9.70;;;5.65;;
64936;SDS011;51452;47.698;19.050;2022-08-18T00:49:42;8.70;;;5.70;;
64936;SDS011;51452;47.698;19.050;2022-08-18T00:52:11;10.85;;;5.80;;
64936;SDS011;51452;47.698;19.050;2022-08-18T00:54:38;7.85;;;5.88;;
64936;SDS011;51452;47.698;19.050;2022-08-18T00:57:05;7.65;;;6.30;;
64936;SDS011;51452;47.698;19.050;2022-08-18T00:59:43;11.15;;;6.80;;
64936;SDS011;51452;47.698;19.050;2022-08-18T01:02:47;9.98;;;5.57;;
64936;SDS011;51452;47.698;19.050;2022-08-18T01:05:12;10.70;;;6.53;;
64936;SDS011;51452;47.698;19.050;2022-08-18T01:07:46;10.55;;;6.30;;
64936;SDS011;51452;47.698;19.050;2022-08-18T01:10:13;11.88;;;6.13;;
64936;SDS011;51452;47.698;19.050;2022-08-18T01:12:44;10.02;;;6.30;;
64936;SDS011;51452;47.698;19.050;2022-08-18T01:15:14;9.98;;;5.82;;
64936;SDS011;51452;47.698;19.050;2022-08-18T01:17:41;12.32;;;6.82;;
64936;SDS011;51452;47.698;19.050;2022-08-18T01:21:09;11.30;;;6.75;;
64936;SDS011;51452;47.698;19.050;2022-08-18T01:23:58;7.90;;;6.38;;
64936;SDS011;51452;47.698;19.050;2022-08-18T01:26:28;11.48;;;6.25;;
64936;SDS011;51452;47.698;19.050;2022-08-18T01:28:57;9.57;;;6.50;;
64936;SDS011;51452;47.698;19.050;2022-08-18T01:31:33;14.73;;;7.03;;
64936;SDS011;51452;47.698;19.050;2022-08-18T01:34:04;9.50;;;6.57;;
64936;SDS011;51452;47.698;19.050;2022-08-18T01:36:31;12.68;;;6.82;;
64936;SDS011;51452;47.698;19.050;2022-08-18T01:39:02;9.65;;;6.28;;
64936;SDS011;51452;47.698;19.050;2022-08-18T01:41:29;15.80;;;7.10;;
64936;SDS011;51452;47.698;19.050;2022-08-18T01:43:55;9.45;;;5.75;;
64936;SDS011;51452;47.698;19.050;2022-08-18T01:46:20;9.73;;;6.47;;
64936;SDS011;51452;47.698;19.050;2022-08-18T01:48:47;10.23;;;6.85;;
64936;SDS011;51452;47.698;19.050;2022-08-18T01:51:13;12.73;;;6.75;;
64936;SDS011;51452;47.698;19.050;2022-08-18T01:53:39;12.82;;;6.80;;
64936;SDS011;51452;47.698;19.050;2022-08-18T01:56:05;13.77;;;6.47;;
64936;SDS011;51452;47.698;19.050;2022-08-18T01:58:31;15.43;;;6.65;;
64936;SDS011;51452;47.698;19.050;2022-08-18T02:00:58;12.73;;;6.68;;
64936;SDS011;51452;47.698;19.050;2022-08-18T02:03:27;12.07;;;7.00;;
64936;SDS011;51452;47.698;19.050;2022-08-18T02:06:01;11.32;;;6.72;;
64936;SDS011;51452;47.698;19.050;2022-08-18T02:08:29;9.73;;;6.82;;
64936;SDS011;51452;47.698;19.050;2022-08-18T02:10:55;9.65;;;6.75;;
64936;SDS011;51452;47.698;19.050;2022-08-18T02:13:22;11.88;;;6.95;;
64936;SDS011;51452;47.698;19.050;2022-08-18T02:15:49;12.80;;;7.43;;
64936;SDS011;51452;47.698;19.050;2022-08-18T02:18:18;9.63;;;6.90;;
64936;SDS011;51452;47.698;19.050;2022-08-18T02:20:45;13.68;;;7.10;;
64936;SDS011;51452;47.698;19.050;2022-08-18T02:23:12;11.02;;;7.20;;
64936;SDS011;51452;47.698;19.050;2022-08-18T02:25:37;10.20;;;7.15;;
64936;SDS011;51452;47.698;19.050;2022-08-18T02:28:04;10.65;;;7.07;;
64936;SDS011;51452;47.698;19.050;2022-08-18T02:30:29;11.73;;;6.50;;
64936;SDS011;51452;47.698;19.050;2022-08-18T02:32:58;12.23;;;7.07;;
64936;SDS011;51452;47.698;19.050;2022-08-18T02:35:24;11.77;;;7.28;;
64936;SDS011;51452;47.698;19.050;2022-08-18T02:37:49;10.88;;;6.53;;
64936;SDS011;51452;47.698;19.050;2022-08-18T02:40:15;11.98;;;6.78;;
64936;SDS011;51452;47.698;19.050;2022-08-18T02:42:41;13.85;;;7.10;;
64936;SDS011;51452;47.698;19.050;2022-08-18T02:45:08;12.40;;;7.40;;
64936;SDS011;51452;47.698;19.050;2022-08-18T02:47:34;11.05;;;7.10;;
64936;SDS011;51452;47.698;19.050;2022-08-18T02:49:59;7.93;;;6.60;;
64936;SDS011;51452;47.698;19.050;2022-08-18T02:52:24;15.40;;;7.13;;
64936;SDS011;51452;47.698;19.050;2022-08-18T02:54:59;10.00;;;7.10;;
64936;SDS011;51452;47.698;19.050;2022-08-18T02:57:28;17.38;;;7.25;;
64936;SDS011;51452;47.698;19.050;2022-08-18T02:59:54;12.55;;;7.88;;
64936;SDS011;51452;47.698;19.050;2022-08-18T03:02:20;11.20;;;7.10;;
64936;SDS011;51452;47.698;19.050;2022-08-18T03:04:46;11.32;;;7.20;;
64936;SDS011;51452;47.698;19.050;2022-08-18T03:07:12;11.68;;;7.13;;
64936;SDS011;51452;47.698;19.050;2022-08-18T03:09:38;13.63;;;7.57;;
64936;SDS011;51452;47.698;19.050;2022-08-18T03:12:04;11.38;;;7.38;;
64936;SDS011;51452;47.698;19.050;2022-08-18T03:14:31;11.63;;;7.10;;
64936;SDS011;51452;47.698;19.050;2022-08-18T03:16:57;10.68;;;7.05;;
64936;SDS011;51452;47.698;19.050;2022-08-18T03:19:25;11.23;;;6.85;;
64936;SDS011;51452;47.698;19.050;2022-08-18T03:21:52;10.82;;;6.93;;
64936;SDS011;51452;47.698;19.050;2022-08-18T03:24:20;8.93;;;6.97;;
64936;SDS011;51452;47.698;19.050;2022-08-18T03:26:46;10.70;;;6.43;;
64936;SDS011;51452;47.698;19.050;2022-08-18T03:29:11;8.65;;;7.15;;
64936;SDS011;51452;47.698;19.050;2022-08-18T03:31:37;10.15;;;7.63;;
64936;SDS011;51452;47.698;19.050;2022-08-18T03:34:04;12.55;;;7.07;;
64936;SDS011;51452;47.698;19.050;2022-08-18T03:36:31;10.38;;;6.75;;
64936;SDS011;51452;47.698;19.050;2022-08-18T03:38:57;9.27;;;6.95;;
64936;SDS011;51452;47.698;19.050;2022-08-18T03:41:26;13.98;;;7.35;;
64936;SDS011;51452;47.698;19.050;2022-08-18T03:43:52;9.88;;;6.95;;
64936;SDS011;51452;47.698;19.050;2022-08-18T03:46:18;9.90;;;7.45;;
64936;SDS011;51452;47.698;19.050;2022-08-18T03:48:45;9.63;;;6.82;;
64936;SDS011;51452;47.698;19.050;2022-08-18T03:51:13;10.82;;;7.35;;
64936;SDS011;51452;47.698;19.050;2022-08-18T03:53:54;9.35;;;6.88;;
64936;SDS011;51452;47.698;19.050;2022-08-18T03:56:24;9.65;;;7.28;;
64936;SDS011;51452;47.698;19.050;2022-08-18T03:58:53;10.13;;;7.03;;
64936;SDS011;51452;47.698;19.050;2022-08-18T04:01:21;11.10;;;6.85;;
64936;SDS011;51452;47.698;19.050;2022-08-18T04:03:51;10.50;;;6.65;;
64936;SDS011;51452;47.698;19.050;2022-08-18T04:06:21;9.45;;;6.88;;
64936;SDS011;51452;47.698;19.050;2022-08-18T04:08:55;11.50;;;6.15;;
64936;SDS011;51452;47.698;19.050;2022-08-18T04:11:22;13.57;;;7.55;;
64936;SDS011;51452;47.698;19.050;2022-08-18T04:13:49;10.88;;;7.35;;
64936;SDS011;51452;47.698;19.050;2022-08-18T04:16:15;8.38;;;6.45;;
64936;SDS011;51452;47.698;19.050;2022-08-18T04:18:40;9.88;;;6.47;;
64936;SDS011;51452;47.698;19.050;2022-08-18T04:21:07;9.85;;;7.35;;
64936;SDS011;51452;47.698;19.050;2022-08-18T04:23:35;10.43;;;7.00;;
64936;SDS011;51452;47.698;19.050;2022-08-18T04:26:02;10.82;;;6.90;;
64936;SDS011;51452;47.698;19.050;2022-08-18T04:28:29;9.93;;;7.05;;
64936;SDS011;51452;47.698;19.050;2022-08-18T04:30:55;9.68;;;6.60;;
64936;SDS011;51452;47.698;19.050;2022-08-18T04:33:24;8.55;;;6.65;;
64936;SDS011;51452;47.698;19.050;2022-08-18T04:35:50;8.38;;;6.28;;
64936;SDS011;51452;47.698;19.050;2022-08-18T04:38:15;9.93;;;7.10;;
64936;SDS011;51452;47.698;19.050;2022-08-18T04:40:41;11.43;;;6.72;;
64936;SDS011;51452;47.698;19.050;2022-08-18T04:43:07;7.72;;;6.90;;
64936;SDS011;51452;47.698;19.050;2022-08-18T04:45:39;11.93;;;7.53;;
64936;SDS011;51452;47.698;19.050;2022-08-18T04:48:05;13.45;;;7.07;;
64936;SDS011;51452;47.698;19.050;2022-08-18T04:50:31;11.05;;;7.00;;
64936;SDS011;51452;47.698;19.050;2022-08-18T04:52:56;8.50;;;6.68;;
64936;SDS011;51452;47.698;19.050;2022-08-18T04:55:45;8.93;;;6.77;;
64936;SDS011;51452;47.698;19.050;2022-08-18T04:58:18;12.18;;;6.43;;
64936;SDS011;51452;47.698;19.050;2022-08-18T05:00:46;11.98;;;7.28;;
64936;SDS011;51452;47.698;19.050;2022-08-18T05:03:24;9.88;;;7.15;;
64936;SDS011;51452;47.698;19.050;2022-08-18T05:05:51;10.48;;;7.00;;
64936;SDS011;51452;47.698;19.050;2022-08-18T05:08:20;11.75;;;7.00;;
64936;SDS011;51452;47.698;19.050;2022-08-18T05:10:46;9.35;;;6.82;;
64936;SDS011;51452;47.698;19.050;2022-08-18T05:13:12;10.18;;;6.38;;
64936;SDS011;51452;47.698;19.050;2022-08-18T05:15:41;10.95;;;6.68;;
64936;SDS011;51452;47.698;19.050;2022-08-18T05:18:07;12.77;;;6.47;;
64936;SDS011;51452;47.698;19.050;2022-08-18T05:20:33;12.05;;;6.97;;
64936;SDS011;51452;47.698;19.050;2022-08-18T05:22:59;11.32;;;6.68;;
64936;SDS011;51452;47.698;19.050;2022-08-18T05:25:24;8.35;;;6.82;;
64936;SDS011;51452;47.698;19.050;2022-08-18T05:27:49;10.32;;;6.60;;
64936;SDS011;51452;47.698;19.050;2022-08-18T05:30:15;10.25;;;6.35;;
64936;SDS011;51452;47.698;19.050;2022-08-18T05:32:41;14.00;;;6.78;;
64936;SDS011;51452;47.698;19.050;2022-08-18T05:35:13;9.85;;;6.60;;
64936;SDS011;51452;47.698;19.050;2022-08-18T05:40:12;8.43;;;6.32;;
64936;SDS011;51452;47.698;19.050;2022-08-18T05:42:39;9.20;;;6.38;;
64936;SDS011;51452;47.698;19.050;2022-08-18T05:45:11;8.45;;;6.45;;
64936;SDS011;51452;47.698;19.050;2022-08-18T05:47:40;10.43;;;6.35;;
64936;SDS011;51452;47.698;19.050;2022-08-18T05:50:13;8.73;;;6.13;;
64936;SDS011;51452;47.698;19.050;2022-08-18T05:58:15;11.85;;;6.93;;
64936;SDS011;51452;47.698;19.050;2022-08-18T06:00:51;8.70;;;6.10;;
64936;SDS011;51452;47.698;19.050;2022-08-18T06:03:21;11.95;;;6.40;;
64936;SDS011;51452;47.698;19.050;2022-08-18T06:05:55;6.68;;;5.65;;
64936;SDS011;51452;47.698;19.050;2022-08-18T06:08:42;10.18;;;5.93;;
64936;SDS011;51452;47.698;19.050;2022-08-18T06:11:12;9.55;;;5.90;;
64936;SDS011;51452;47.698;19.050;2022-08-18T06:13:38;9.65;;;6.72;;
64936;SDS011;51452;47.698;19.050;2022-08-18T06:23:55;8.57;;;5.93;;
64936;SDS011;51452;47.698;19.050;2022-08-18T06:26:44;9.65;;;6.25;;
64936;SDS011;51452;47.698;19.050;2022-08-18T06:43:48;12.55;;;6.03;;
64936;SDS011;51452;47.698;19.050;2022-08-18T06:46:24;10.63;;;6.50;;
64936;SDS011;51452;47.698;19.050;2022-08-18T06:48:59;7.70;;;6.13;;
64936;SDS011;51452;47.698;19.050;2022-08-18T06:51:28;12.60;;;6.82;;
64936;SDS011;51452;47.698;19.050;2022-08-18T06:58:48;10.48;;;6.10;;
64936;SDS011;51452;47.698;19.050;2022-08-18T07:01:17;9.25;;;6.20;;
64936;SDS011;51452;47.698;19.050;2022-08-18T07:03:45;8.68;;;6.43;;
64936;SDS011;51452;47.698;19.050;2022-08-18T07:08:45;10.52;;;6.32;;
64936;SDS011;51452;47.698;19.050;2022-08-18T07:11:17;10.95;;;6.13;;
64936;SDS011;51452;47.698;19.050;2022-08-18T07:13:48;7.63;;;5.90;;
64936;SDS011;51452;47.698;19.050;2022-08-18T07:16:31;10.98;;;6.03;;
64936;SDS011;51452;47.698;19.050;2022-08-18T07:19:10;10.00;;;5.70;;
64936;SDS011;51452;47.698;19.050;2022-08-18T07:21:44;12.32;;;6.20;;
64936;SDS011;51452;47.698;19.050;2022-08-18T07:24:30;12.02;;;6.50;;
64936;SDS011;51452;47.698;19.050;2022-08-18T07:29:30;11.18;;;6.40;;
64936;SDS011;51452;47.698;19.050;2022-08-18T07:31:59;9.05;;;6.13;;
64936;SDS011;51452;47.698;19.050;2022-08-18T07:34:30;9.25;;;5.60;;
64936;SDS011;51452;47.698;19.050;2022-08-18T07:37:08;13.07;;;6.43;;
64936;SDS011;51452;47.698;19.050;2022-08-18T07:39:46;8.27;;;5.95;;
64936;SDS011;51452;47.698;19.050;2022-08-18T07:42:38;12.43;;;6.57;;
64936;SDS011;51452;47.698;19.050;2022-08-18T07:50:12;7.82;;;5.80;;
64936;SDS011;51452;47.698;19.050;2022-08-18T07:52:39;11.32;;;6.03;;
64936;SDS011;51452;47.698;19.050;2022-08-18T07:55:30;11.75;;;6.25;;
64936;SDS011;51452;47.698;19.050;2022-08-18T07:58:11;14.30;;;6.38;;
64936;SDS011;51452;47.698;19.050;2022-08-18T08:00:50;9.07;;;5.20;;
64936;SDS011;51452;47.698;19.050;2022-08-18T08:03:37;9.07;;;6.30;;
64936;SDS011;51452;47.698;19.050;2022-08-18T08:08:54;9.75;;;5.55;;
64936;SDS011;51452;47.698;19.050;2022-08-18T08:22:18;8.90;;;5.88;;
64936;SDS011;51452;47.698;19.050;2022-08-18T08:25:07;8.45;;;5.53;;
64936;SDS011;51452;47.698;19.050;2022-08-18T08:30:24;9.55;;;6.03;;
64936;SDS011;51452;47.698;19.050;2022-08-18T08:35:43;9.73;;;5.82;;
64936;SDS011;51452;47.698;19.050;2022-08-18T08:38:18;11.35;;;6.20;;
64936;SDS011;51452;47.698;19.050;2022-08-18T08:43:22;12.50;;;5.70;;
64936;SDS011;51452;47.698;19.050;2022-08-18T08:46:03;10.30;;;5.80;;
64936;SDS011;51452;47.698;19.050;2022-08-18T08:49:11;11.68;;;5.53;;
64936;SDS011;51452;47.698;19.050;2022-08-18T08:52:10;15.23;;;5.78;;
64936;SDS011;51452;47.698;19.050;2022-08-18T08:54:44;12.80;;;5.72;;
64936;SDS011;51452;47.698;19.050;2022-08-18T08:57:15;9.43;;;5.93;;
64936;SDS011;51452;47.698;19.050;2022-08-18T08:59:43;7.72;;;5.40;;
64936;SDS011;51452;47.698;19.050;2022-08-18T09:07:30;8.52;;;5.50;;
64936;SDS011;51452;47.698;19.050;2022-08-18T09:13:07;8.70;;;5.20;;
64936;SDS011;51452;47.698;19.050;2022-08-18T09:23:46;9.25;;;5.57;;
64936;SDS011;51452;47.698;19.050;2022-08-18T09:26:48;8.35;;;5.38;;
64936;SDS011;51452;47.698;19.050;2022-08-18T09:29:18;8.43;;;5.30;;
64936;SDS011;51452;47.698;19.050;2022-08-18T09:34:45;9.07;;;5.65;;
64936;SDS011;51452;47.698;19.050;2022-08-18T09:40:47;12.13;;;4.97;;
64936;SDS011;51452;47.698;19.050;2022-08-18T09:54:31;6.72;;;5.50;;
64936;SDS011;51452;47.698;19.050;2022-08-18T09:59:50;6.68;;;4.80;;
64936;SDS011;51452;47.698;19.050;2022-08-18T10:04:51;10.27;;;5.20;;
64936;SDS011;51452;47.698;19.050;2022-08-18T10:07:40;8.18;;;5.10;;
64936;SDS011;51452;47.698;19.050;2022-08-18T10:16:20;8.90;;;4.97;;
64936;SDS011;51452;47.698;19.050;2022-08-18T10:24:27;10.63;;;5.07;;
64936;SDS011;51452;47.698;19.050;2022-08-18T10:26:58;6.00;;;4.80;;
64936;SDS011;51452;47.698;19.050;2022-08-18T10:29:46;8.70;;;4.30;;
64936;SDS011;51452;47.698;19.050;2022-08-18T10:37:20;9.05;;;4.78;;
64936;SDS011;51452;47.698;19.050;2022-08-18T10:40:03;11.93;;;4.38;;
64936;SDS011;51452;47.698;19.050;2022-08-18T10:45:28;15.40;;;5.00;;
64936;SDS011;51452;47.698;19.050;2022-08-18T10:48:06;10.70;;;4.85;;
64936;SDS011;51452;47.698;19.050;2022-08-18T10:53:57;5.53;;;4.47;;
64936;SDS011;51452;47.698;19.050;2022-08-18T11:04:53;6.88;;;4.32;;
64936;SDS011;51452;47.698;19.050;2022-08-18T11:07:28;9.82;;;4.07;;
64936;SDS011;51452;47.698;19.050;2022-08-18T11:09:56;12.50;;;4.78;;
64936;SDS011;51452;47.698;19.050;2022-08-18T11:24:01;11.60;;;4.00;;
64936;SDS011;51452;47.698;19.050;2022-08-18T11:34:52;4.53;;;3.58;;
64936;SDS011;51452;47.698;19.050;2022-08-18T11:40:05;5.50;;;3.47;;
64936;SDS011;51452;47.698;19.050;2022-08-18T11:42:59;5.03;;;3.42;;
64936;SDS011;51452;47.698;19.050;2022-08-18T11:53:23;4.68;;;2.90;;
64936;SDS011;51452;47.698;19.050;2022-08-18T11:56:11;3.50;;;2.60;;
64936;SDS011;51452;47.698;19.050;2022-08-18T12:01:05;4.22;;;3.03;;
64936;SDS011;51452;47.698;19.050;2022-08-18T12:03:38;4.30;;;2.75;;
64936;SDS011;51452;47.698;19.050;2022-08-18T12:06:30;11.93;;;2.90;;
64936;SDS011;51452;47.698;19.050;2022-08-18T12:09:15;5.25;;;2.55;;
64936;SDS011;51452;47.698;19.050;2022-08-18T12:11:50;8.93;;;2.80;;
64936;SDS011;51452;47.698;19.050;2022-08-18T12:14:19;4.53;;;2.53;;
64936;SDS011;51452;47.698;19.050;2022-08-18T12:16:46;6.32;;;3.03;;
64936;SDS011;51452;47.698;19.050;2022-08-18T12:19:13;4.50;;;2.30;;
64936;SDS011;51452;47.698;19.050;2022-08-18T12:21:48;3.80;;;2.33;;
64936;SDS011;51452;47.698;19.050;2022-08-18T12:24:20;5.40;;;2.92;;
64936;SDS011;51452;47.698;19.050;2022-08-18T12:26:48;4.10;;;2.75;;
64936;SDS011;51452;47.698;19.050;2022-08-18T12:29:15;6.38;;;2.67;;
64936;SDS011;51452;47.698;19.050;2022-08-18T12:31:43;8.48;;;2.50;;
64936;SDS011;51452;47.698;19.050;2022-08-18T12:34:09;6.40;;;3.00;;
64936;SDS011;51452;47.698;19.050;2022-08-18T12:36:35;5.80;;;2.70;;
64936;SDS011;51452;47.698;19.050;2022-08-18T12:39:00;7.22;;;2.85;;
64936;SDS011;51452;47.698;19.050;2022-08-18T12:41:26;8.38;;;2.50;;
64936;SDS011;51452;47.698;19.050;2022-08-18T12:43:51;4.22;;;2.58;;
64936;SDS011;51452;47.698;19.050;2022-08-18T12:46:17;7.40;;;2.85;;
64936;SDS011;51452;47.698;19.050;2022-08-18T12:48:43;4.28;;;2.70;;
64936;SDS011;51452;47.698;19.050;2022-08-18T12:51:09;5.53;;;2.95;;
64936;SDS011;51452;47.698;19.050;2022-08-18T12:53:34;4.50;;;2.75;;
64936;SDS011;51452;47.698;19.050;2022-08-18T12:56:00;3.97;;;2.33;;
64936;SDS011;51452;47.698;19.050;2022-08-18T12:58:26;4.88;;;2.97;;
64936;SDS011;51452;47.698;19.050;2022-08-18T13:00:52;4.18;;;2.53;;
64936;SDS011;51452;47.698;19.050;2022-08-18T13:03:17;6.57;;;2.30;;
64936;SDS011;51452;47.698;19.050;2022-08-18T13:05:43;7.03;;;2.85;;
64936;SDS011;51452;47.698;19.050;2022-08-18T13:08:12;4.03;;;2.97;;
64936;SDS011;51452;47.698;19.050;2022-08-18T13:10:42;3.15;;;2.60;;
64936;SDS011;51452;47.698;19.050;2022-08-18T13:13:08;7.35;;;2.75;;
64936;SDS011;51452;47.698;19.050;2022-08-18T13:15:34;4.75;;;2.85;;
64936;SDS011;51452;47.698;19.050;2022-08-18T13:18:00;3.67;;;2.60;;
64936;SDS011;51452;47.698;19.050;2022-08-18T13:20:26;4.15;;;2.53;;
64936;SDS011;51452;47.698;19.050;2022-08-18T13:22:52;3.97;;;2.40;;
64936;SDS011;51452;47.698;19.050;2022-08-18T13:25:18;4.97;;;3.08;;
64936;SDS011;51452;47.698;19.050;2022-08-18T13:27:43;7.18;;;3.22;;
64936;SDS011;51452;47.698;19.050;2022-08-18T13:30:10;6.28;;;2.92;;
64936;SDS011;51452;47.698;19.050;2022-08-18T13:32:38;5.20;;;3.15;;
64936;SDS011;51452;47.698;19.050;2022-08-18T13:35:05;4.32;;;3.00;;
64936;SDS011;51452;47.698;19.050;2022-08-18T13:37:31;6.40;;;2.70;;
64936;SDS011;51452;47.698;19.050;2022-08-18T13:39:57;3.10;;;2.80;;
64936;SDS011;51452;47.698;19.050;2022-08-18T13:42:24;4.80;;;2.83;;
64936;SDS011;51452;47.698;19.050;2022-08-18T13:44:52;7.18;;;2.90;;
64936;SDS011;51452;47.698;19.050;2022-08-18T13:47:18;7.53;;;2.88;;
64936;SDS011;51452;47.698;19.050;2022-08-18T13:49:44;9.77;;;3.25;;
64936;SDS011;51452;47.698;19.050;2022-08-18T13:52:10;5.60;;;2.97;;
64936;SDS011;51452;47.698;19.050;2022-08-18T13:54:37;5.93;;;2.80;;
64936;SDS011;51452;47.698;19.050;2022-08-18T13:57:03;13.57;;;3.28;;
64936;SDS011;51452;47.698;19.050;2022-08-18T13:59:29;4.90;;;3.20;;
64936;SDS011;51452;47.698;19.050;2022-08-18T14:01:57;6.20;;;3.13;;
64936;SDS011;51452;47.698;19.050;2022-08-18T14:04:24;6.50;;;3.20;;
64936;SDS011;51452;47.698;19.050;2022-08-18T14:06:50;6.90;;;3.20;;
64936;SDS011;51452;47.698;19.050;2022-08-18T14:09:16;6.25;;;2.80;;
64936;SDS011;51452;47.698;19.050;2022-08-18T14:11:41;5.20;;;3.08;;
64936;SDS011;51452;47.698;19.050;2022-08-18T14:14:07;5.03;;;3.00;;
64936;SDS011;51452;47.698;19.050;2022-08-18T14:16:33;4.95;;;3.20;;
64936;SDS011;51452;47.698;19.050;2022-08-18T14:18:59;7.28;;;3.13;;
64936;SDS011;51452;47.698;19.050;2022-08-18T14:21:48;5.65;;;3.40;;
64936;SDS011;51452;47.698;19.050;2022-08-18T14:24:34;7.25;;;3.25;;
64936;SDS011;51452;47.698;19.050;2022-08-18T14:27:27;4.22;;;3.35;;
64936;SDS011;51452;47.698;19.050;2022-08-18T14:29:55;8.98;;;3.45;;
64936;SDS011;51452;47.698;19.050;2022-08-18T14:32:22;6.47;;;3.20;;
64936;SDS011;51452;47.698;19.050;2022-08-18T14:34:48;6.57;;;3.30;;
64936;SDS011;51452;47.698;19.050;2022-08-18T14:37:14;4.85;;;3.30;;
64936;SDS011;51452;47.698;19.050;2022-08-18T14:39:39;6.95;;;3.05;;
64936;SDS011;51452;47.698;19.050;2022-08-18T14:42:05;5.10;;;3.45;;
64936;SDS011;51452;47.698;19.050;2022-08-18T14:44:31;5.32;;;2.92;;
64936;SDS011;51452;47.698;19.050;2022-08-18T14:46:56;6.43;;;2.88;;
64936;SDS011;51452;47.698;19.050;2022-08-18T14:49:25;6.78;;;2.83;;
64936;SDS011;51452;47.698;19.050;2022-08-18T14:51:51;7.82;;;3.20;;
64936;SDS011;51452;47.698;19.050;2022-08-18T14:54:16;6.25;;;3.00;;
64936;SDS011;51452;47.698;19.050;2022-08-18T14:56:41;5.47;;;2.90;;
64936;SDS011;51452;47.698;19.050;2022-08-18T14:59:07;3.90;;;2.90;;
64936;SDS011;51452;47.698;19.050;2022-08-18T15:01:33;5.43;;;3.42;;
64936;SDS011;51452;47.698;19.050;2022-08-18T15:04:00;6.93;;;3.10;;
64936;SDS011;51452;47.698;19.050;2022-08-18T15:06:25;5.60;;;3.05;;
64936;SDS011;51452;47.698;19.050;2022-08-18T15:08:51;8.85;;;3.40;;
64936;SDS011;51452;47.698;19.050;2022-08-18T15:11:16;5.40;;;2.92;;
64936;SDS011;51452;47.698;19.050;2022-08-18T15:13:42;9.02;;;3.20;;
64936;SDS011;51452;47.698;19.050;2022-08-18T15:16:09;6.78;;;3.45;;
64936;SDS011;51452;47.698;19.050;2022-08-18T15:18:41;6.97;;;3.47;;
64936;SDS011;51452;47.698;19.050;2022-08-18T15:21:07;4.32;;;2.92;;
64936;SDS011;51452;47.698;19.050;2022-08-18T15:23:51;4.82;;;3.28;;
64936;SDS011;51452;47.698;19.050;2022-08-18T15:26:36;5.43;;;2.67;;
64936;SDS011;51452;47.698;19.050;2022-08-18T15:29:02;5.80;;;3.50;;
64936;SDS011;51452;47.698;19.050;2022-08-18T15:31:31;5.90;;;2.97;;
64936;SDS011;51452;47.698;19.050;2022-08-18T15:33:58;10.85;;;2.90;;
64936;SDS011;51452;47.698;19.050;2022-08-18T15:36:23;5.22;;;3.08;;
64936;SDS011;51452;47.698;19.050;2022-08-18T15:38:49;5.75;;;3.15;;
64936;SDS011;51452;47.698;19.050;2022-08-18T15:41:37;7.22;;;3.20;;
64936;SDS011;51452;47.698;19.050;2022-08-18T15:44:02;4.55;;;3.00;;
64936;SDS011;51452;47.698;19.050;2022-08-18T15:46:32;4.95;;;3.10;;
64936;SDS011;51452;47.698;19.050;2022-08-18T15:49:00;4.15;;;3.03;;
64936;SDS011;51452;47.698;19.050;2022-08-18T15:51:29;5.05;;;3.50;;
64936;SDS011;51452;47.698;19.050;2022-08-18T15:53:54;5.63;;;3.25;;
64936;SDS011;51452;47.698;19.050;2022-08-18T15:56:21;4.97;;;3.20;;
64936;SDS011;51452;47.698;19.050;2022-08-18T15:58:48;9.55;;;3.60;;
64936;SDS011;51452;47.698;19.050;2022-08-18T16:01:15;7.57;;;3.47;;
64936;SDS011;51452;47.698;19.050;2022-08-18T16:03:45;7.22;;;3.70;;
64936;SDS011;51452;47.698;19.050;2022-08-18T16:06:11;8.90;;;3.30;;
64936;SDS011;51452;47.698;19.050;2022-08-18T16:08:38;7.35;;;3.08;;
64936;SDS011;51452;47.698;19.050;2022-08-18T16:11:07;5.53;;;3.10;;
64936;SDS011;51452;47.698;19.050;2022-08-18T16:13:34;7.30;;;3.67;;
64936;SDS011;51452;47.698;19.050;2022-08-18T16:16:02;8.35;;;3.13;;
64936;SDS011;51452;47.698;19.050;2022-08-18T16:18:33;7.32;;;2.80;;
64936;SDS011;51452;47.698;19.050;2022-08-18T16:21:03;4.95;;;2.53;;
64936;SDS011;51452;47.698;19.050;2022-08-18T16:23:36;7.93;;;3.38;;
64936;SDS011;51452;47.698;19.050;2022-08-18T16:26:02;11.35;;;3.38;;
64936;SDS011;51452;47.698;19.050;2022-08-18T16:28:28;7.72;;;2.97;;
64936;SDS011;51452;47.698;19.050;2022-08-18T16:30:53;6.53;;;2.85;;
64936;SDS011;51452;47.698;19.050;2022-08-18T16:33:19;7.32;;;2.70;;
64936;SDS011;51452;47.698;19.050;2022-08-18T16:35:45;7.82;;;2.33;;
64936;SDS011;51452;47.698;19.050;2022-08-18T16:38:13;6.85;;;2.35;;
64936;SDS011;51452;47.698;19.050;2022-08-18T16:40:39;6.97;;;2.53;;
64936;SDS011;51452;47.698;19.050;2022-08-18T16:43:05;8.93;;;2.47;;
64936;SDS011;51452;47.698;19.050;2022-08-18T16:45:31;6.20;;;2.72;;
64936;SDS011;51452;47.698;19.050;2022-08-18T16:47:58;5.35;;;2.95;;
64936;SDS011;51452;47.698;19.050;2022-08-18T16:50:24;4.97;;;2.53;;
64936;SDS011;51452;47.698;19.050;2022-08-18T16:52:50;8.02;;;2.50;;
64936;SDS011;51452;47.698;19.050;2022-08-18T16:55:16;10.93;;;2.85;;
64936;SDS011;51452;47.698;19.050;2022-08-18T16:57:41;6.03;;;2.33;;
64936;SDS011;51452;47.698;19.050;2022-08-18T17:00:26;6.78;;;2.42;;
64936;SDS011;51452;47.698;19.050;2022-08-18T17:03:12;8.93;;;2.97;;
64936;SDS011;51452;47.698;19.050;2022-08-18T17:06:03;7.68;;;2.50;;
64936;SDS011;51452;47.698;19.050;2022-08-18T17:08:31;8.65;;;2.45;;
64936;SDS011;51452;47.698;19.050;2022-08-18T17:10:58;11.52;;;3.05;;
64936;SDS011;51452;47.698;19.050;2022-08-18T17:13:28;16.63;;;3.72;;
64936;SDS011;51452;47.698;19.050;2022-08-18T17:15:54;10.45;;;3.05;;
64936;SDS011;51452;47.698;19.050;2022-08-18T17:18:20;9.13;;;2.80;;
64936;SDS011;51452;47.698;19.050;2022-08-18T17:20:46;9.00;;;3.05;;
64936;SDS011;51452;47.698;19.050;2022-08-18T17:23:11;13.52;;;3.40;;
64936;SDS011;51452;47.698;19.050;2022-08-18T17:25:36;18.20;;;3.67;;
64936;SDS011;51452;47.698;19.050;2022-08-18T17:28:02;11.63;;;2.75;;
64936;SDS011;51452;47.698;19.050;2022-08-18T17:30:29;10.52;;;2.70;;
64936;SDS011;51452;47.698;19.050;2022-08-18T17:32:57;11.18;;;3.13;;
64936;SDS011;51452;47.698;19.050;2022-08-18T17:40:58;4.78;;;2.50;;
64936;SDS011;51452;47.698;19.050;2022-08-18T17:43:31;11.27;;;2.60;;
64936;SDS011;51452;47.698;19.050;2022-08-18T17:46:08;6.60;;;2.50;;
64936;SDS011;51452;47.698;19.050;2022-08-18T17:48:42;6.97;;;2.80;;